Time;durP1;ratioP1;P1;durP2;ratioP2;P2;SDS_P1;SDS_P2;PMS_P1;PMS_P2;Temp;Humidity;BMP_temperature;BMP_pressure;BME280_temperature;BME280_humidity;BME280_pressure;Samples;Min_cycle;Max_cycle;Signal;HPM_P1;HPM_P2
2023/01/22 00:01:40;;;;;;;50.13;22.20;;;0.00;99.90;;;;;;5034540;28;20107;-55
2023/01/22 00:04:05;;;;;;;47.43;21.93;;;0.00;99.90;;;;;;5034339;28;20037;-55
2023/01/22 00:06:31;;;;;;;43.27;19.93;;;0.00;99.90;;;;;;5034081;28;20044;-56
2023/01/22 00:09:02;;;;;;;45.67;20.63;;;0.10;99.90;;;;;;5034178;28;20068;-55
2023/01/22 00:11:28;;;;;;;48.40;22.00;;;0.10;99.90;;;;;;5034059;28;20033;-56
2023/01/22 00:13:54;;;;;;;45.83;20.33;;;0.20;99.90;;;;;;5034002;28;20032;-56
2023/01/22 00:16:20;;;;;;;47.10;22.53;;;0.20;99.90;;;;;;5033776;28;20401;-55
2023/01/22 00:18:46;;;;;;;48.63;21.07;;;0.20;99.90;;;;;;5034010;28;20080;-56
2023/01/22 00:21:12;;;;;;;47.70;21.17;;;0.30;99.90;;;;;;5033886;28;20022;-56
2023/01/22 00:23:38;;;;;;;45.47;20.80;;;0.20;99.90;;;;;;5033900;28;20041;-55
2023/01/22 00:26:14;;;;;;;46.50;21.43;;;0.30;99.90;;;;;;5033716;28;20092;-55
2023/01/22 00:28:41;;;;;;;47.07;20.73;;;0.30;99.90;;;;;;5033494;28;20612;-56
2023/01/22 00:31:09;;;;;;;49.40;21.23;;;0.30;99.90;;;;;;5033787;28;20156;-56
2023/01/22 00:33:35;;;;;;;44.17;20.50;;;0.30;99.90;;;;;;5032204;28;20033;-55
2023/01/22 00:36:09;;;;;;;42.20;21.17;;;0.30;99.90;;;;;;5033493;28;20394;-57
2023/01/22 00:38:34;;;;;;;42.30;21.10;;;0.30;99.90;;;;;;5033142;28;20696;-57
2023/01/22 00:41:02;;;;;;;46.87;21.13;;;0.30;99.90;;;;;;5032134;28;20032;-57
2023/01/22 00:43:28;;;;;;;43.03;19.20;;;0.20;99.90;;;;;;5033351;28;20125;-56
2023/01/22 00:45:54;;;;;;;44.93;20.60;;;0.20;99.90;;;;;;5033352;28;20508;-57
2023/01/22 00:48:20;;;;;;;44.57;19.90;;;0.20;99.90;;;;;;5031671;28;20136;-57
2023/01/22 00:50:46;;;;;;;44.00;21.00;;;0.30;99.90;;;;;;5031713;28;20033;-57
2023/01/22 00:53:12;;;;;;;47.33;20.53;;;0.20;99.90;;;;;;5033068;28;20037;-56
2023/01/22 00:55:37;;;;;;;40.73;20.03;;;0.30;99.90;;;;;;5032993;28;20029;-56
2023/01/22 00:58:03;;;;;;;45.97;21.40;;;0.30;99.90;;;;;;5031634;28;20025;-57
2023/01/22 01:00:30;;;;;;;44.17;21.07;;;0.30;99.90;;;;;;5033151;28;20117;-57
2023/01/22 01:05:39;;;;;;;42.47;19.63;;;0.30;99.90;;;;;;5032089;28;20045;-56
2023/01/22 01:08:05;;;;;;;41.43;19.17;;;0.30;99.90;;;;;;5031417;28;20116;-57
2023/01/22 01:10:31;;;;;;;45.57;19.83;;;0.30;99.90;;;;;;5031560;28;20031;-56
2023/01/22 01:12:57;;;;;;;43.73;20.33;;;0.30;99.90;;;;;;5031511;28;20080;-56
2023/01/22 01:15:23;;;;;;;41.97;19.83;;;0.30;99.90;;;;;;5031265;28;20534;-56
2023/01/22 01:17:49;;;;;;;42.83;19.67;;;0.30;99.90;;;;;;5032411;28;20026;-56
2023/01/22 01:20:15;;;;;;;40.60;19.57;;;0.30;99.90;;;;;;5032487;28;20474;-56
2023/01/22 01:22:40;;;;;;;38.10;18.80;;;0.40;99.90;;;;;;5032454;28;20028;-56
2023/01/22 01:25:06;;;;;;;39.37;19.70;;;0.40;99.90;;;;;;5030992;28;20033;-56
2023/01/22 01:27:32;;;;;;;42.30;19.70;;;0.30;99.90;;;;;;5032443;28;20406;-56
2023/01/22 01:29:58;;;;;;;43.83;19.77;;;0.30;99.90;;;;;;5032293;28;20045;-56
2023/01/22 01:32:24;;;;;;;39.30;18.60;;;0.30;99.90;;;;;;5032464;28;20040;-56
2023/01/22 01:34:50;;;;;;;42.57;20.33;;;0.30;99.90;;;;;;5030750;28;20030;-56
2023/01/22 01:37:16;;;;;;;42.17;19.93;;;0.30;99.90;;;;;;5032143;28;20025;-56
2023/01/22 01:39:41;;;;;;;42.33;20.50;;;0.30;99.90;;;;;;5032197;28;20068;-56
2023/01/22 01:42:08;;;;;;;41.13;19.67;;;0.20;99.90;;;;;;5032305;28;20041;-56
2023/01/22 01:44:36;;;;;;;41.00;19.93;;;0.30;99.90;;;;;;5030786;28;20025;-55
2023/01/22 01:47:05;;;;;;;39.53;20.07;;;0.20;99.90;;;;;;5030618;28;20029;-56
2023/01/22 01:49:32;;;;;;;41.45;19.35;;;0.30;99.90;;;;;;5032057;28;20057;-57
2023/01/22 01:52:01;;;;;;;40.03;18.80;;;0.30;99.90;;;;;;5032022;28;20033;-56
2023/01/22 01:54:28;;;;;;;39.85;19.05;;;0.30;99.90;;;;;;5031858;28;20201;-57
2023/01/22 01:57:00;;;;;;;42.90;20.63;;;0.30;99.90;;;;;;5030435;28;20037;-56
2023/01/22 01:59:26;;;;;;;38.67;18.90;;;0.30;99.90;;;;;;5030463;28;20108;-56
2023/01/22 02:01:54;;;;;;;37.17;18.20;;;0.30;99.90;;;;;;5031863;28;20025;-56
2023/01/22 02:04:21;;;;;;;39.07;19.10;;;0.30;99.90;;;;;;5031722;28;20150;-55
2023/01/22 02:06:47;;;;;;;39.60;18.73;;;0.30;99.90;;;;;;5031568;28;20037;-56
2023/01/22 02:09:13;;;;;;;38.87;19.03;;;0.30;99.90;;;;;;5031765;28;20079;-56
2023/01/22 02:11:39;;;;;;;35.87;18.30;;;0.30;99.90;;;;;;5031697;28;20026;-56
2023/01/22 02:14:13;;;;;;;36.30;17.77;;;0.30;99.90;;;;;;5031490;28;20405;-55
2023/01/22 02:16:38;;;;;;;38.03;17.87;;;0.40;99.90;;;;;;5030306;28;20033;-56
2023/01/22 02:19:04;;;;;;;38.20;18.93;;;0.30;99.90;;;;;;5029133;28;20092;-56
2023/01/22 02:21:40;;;;;;;34.00;16.83;;;0.30;99.90;;;;;;5031474;28;20112;-56
2023/01/22 02:24:09;;;;;;;35.83;17.63;;;0.30;99.90;;;;;;5029970;28;20037;-56
2023/01/22 02:26:36;;;;;;;35.45;17.85;;;0.30;99.90;;;;;;5029870;28;20037;-56
2023/01/22 02:29:02;;;;;;;37.37;18.07;;;0.30;99.90;;;;;;5029732;28;20045;-56
2023/01/22 02:31:29;;;;;;;36.77;18.37;;;0.30;99.90;;;;;;5030082;28;20481;-56
2023/01/22 02:33:56;;;;;;;40.90;18.37;;;0.30;99.90;;;;;;5029752;28;20033;-56
2023/01/22 02:36:28;;;;;;;37.90;18.03;;;0.30;99.90;;;;;;5029775;28;20333;-56
2023/01/22 02:38:54;;;;;;;38.87;18.10;;;0.40;99.90;;;;;;5029749;28;20116;-56
2023/01/22 02:41:20;;;;;;;35.33;18.30;;;0.40;99.90;;;;;;5029754;28;20152;-56
2023/01/22 02:43:46;;;;;;;33.87;17.47;;;0.40;99.90;;;;;;5029548;28;20025;-56
2023/01/22 02:46:12;;;;;;;37.13;18.93;;;0.30;99.90;;;;;;5029736;28;20037;-57
2023/01/22 02:48:37;;;;;;;40.40;18.50;;;0.30;99.90;;;;;;5029342;28;20025;-57
2023/01/22 02:51:03;;;;;;;38.37;18.53;;;0.30;99.90;;;;;;5030968;28;20065;-56
2023/01/22 02:53:29;;;;;;;36.73;17.47;;;0.30;99.90;;;;;;5029602;28;20029;-56
2023/01/22 02:55:55;;;;;;;36.67;17.70;;;0.40;99.90;;;;;;5029470;28;20125;-55
2023/01/22 02:58:21;;;;;;;35.97;17.97;;;0.40;99.90;;;;;;5029312;28;20029;-56
2023/01/22 03:00:47;;;;;;;35.17;17.37;;;0.40;99.90;;;;;;5030831;28;20135;-55
2023/01/22 03:03:15;;;;;;;34.17;17.60;;;0.30;99.90;;;;;;5029474;28;20025;-55
2023/01/22 03:05:51;;;;;;;;;;;0.30;99.90;;;;;;5029873;28;20029;-56
2023/01/22 03:08:19;;;;;;;34.63;16.63;;;0.30;99.90;;;;;;5029075;28;20431;-56
2023/01/22 03:10:45;;;;;;;32.83;17.03;;;0.30;99.90;;;;;;5029257;28;20084;-56
2023/01/22 03:21:24;;;;;;;33.13;16.43;;;0.40;99.90;;;;;;5029259;28;20029;-56
2023/01/22 03:23:52;;;;;;;29.77;16.37;;;0.40;99.90;;;;;;5028996;28;20180;-56
2023/01/22 03:26:20;;;;;;;25.55;12.57;;;0.40;99.90;;;;;;5029131;28;20044;-56
2023/01/22 03:28:47;;;;;;;31.03;16.40;;;0.30;99.90;;;;;;5039925;23;20084;-52
2023/01/22 03:31:14;;;;;;;32.20;16.20;;;0.30;99.90;;;;;;5019261;28;20033;-49
2023/01/22 03:33:40;;;;;;;30.20;15.90;;;0.30;99.90;;;;;;5019411;28;20033;-53
2023/01/22 03:36:09;;;;;;;34.30;16.90;;;0.30;99.90;;;;;;5019128;28;20115;-50
2023/01/22 03:38:38;;;;;;;32.80;16.33;;;0.30;99.90;;;;;;5018713;28;20508;-53
2023/01/22 03:41:16;;;;;;;32.60;16.30;;;0.30;99.90;;;;;;5019102;28;20032;-54
2023/01/22 03:43:44;;;;;;;30.30;16.70;;;0.30;99.90;;;;;;5019017;28;20026;-54
2023/01/22 03:46:18;;;;;;;30.37;15.70;;;0.20;99.90;;;;;;5019027;28;20030;-53
2023/01/22 03:48:50;;;;;;;34.47;16.77;;;0.20;99.90;;;;;;5018792;28;20033;-54
2023/01/22 03:51:16;;;;;;;31.97;16.60;;;0.20;99.90;;;;;;5019149;28;20033;-53
2023/01/22 03:53:43;;;;;;;28.67;15.27;;;0.30;99.90;;;;;;5018819;28;20792;-52
2023/01/22 03:56:15;;;;;;;32.40;17.43;;;0.20;99.90;;;;;;5019264;28;20557;-51
2023/01/22 03:58:42;;;;;;;28.73;16.23;;;0.30;99.90;;;;;;5036620;28;20037;-52
2023/01/22 04:01:14;;;;;;;32.10;16.97;;;0.30;99.90;;;;;;5018977;28;20021;-53
2023/01/22 04:03:40;;;;;;;31.03;16.83;;;0.20;99.90;;;;;;5018683;28;20025;-50
2023/01/22 04:06:08;;;;;;;31.33;17.23;;;0.20;99.90;;;;;;5018887;28;20056;-52
2023/01/22 04:08:34;;;;;;;32.07;16.87;;;0.20;99.90;;;;;;5018548;28;20080;-52
2023/01/22 04:11:02;;;;;;;30.63;16.43;;;0.20;99.90;;;;;;5018903;28;20044;-53
2023/01/22 04:13:29;;;;;;;33.13;16.63;;;0.10;99.90;;;;;;5018641;28;20033;-52
2023/01/22 04:15:56;;;;;;;33.93;17.57;;;0.10;99.90;;;;;;5018680;28;20128;-51
2023/01/22 04:18:49;;;;;;;31.97;16.33;;;0.10;99.90;;;;;;5012947;28;20026;-50
2023/01/22 04:21:33;;;;;;;34.03;17.13;;;0.10;99.90;;;;;;5018908;28;20397;-52
2023/01/22 04:24:00;;;;;;;32.67;17.27;;;0.00;99.90;;;;;;5018625;28;20026;-53
2023/01/22 04:26:26;;;;;;;33.60;16.97;;;0.00;99.90;;;;;;5018489;28;20045;-51
2023/01/22 04:28:55;;;;;;;29.98;16.55;;;0.00;99.90;;;;;;5036048;28;20099;-53
2023/01/22 04:31:23;;;;;;;31.90;16.47;;;0.00;99.90;;;;;;5018552;28;20375;-52
2023/01/22 04:34:11;;;;;;;32.27;16.83;;;0.00;99.90;;;;;;4989481;28;20037;-51
2023/01/22 04:37:05;;;;;;;31.60;16.43;;;0.00;99.90;;;;;;5018332;28;20336;-53
2023/01/22 04:39:32;;;;;;;32.93;17.07;;;0.00;99.90;;;;;;5018404;28;20490;-52
2023/01/22 04:41:58;;;;;;;32.33;16.97;;;0.00;99.90;;;;;;5014813;28;20494;-49
2023/01/22 04:44:24;;;;;;;31.40;16.43;;;0.10;99.90;;;;;;5015237;28;20117;-53
2023/01/22 04:46:50;;;;;;;34.37;16.93;;;0.10;99.90;;;;;;5015194;28;20129;-53
2023/01/22 04:49:16;;;;;;;35.93;17.97;;;0.10;99.90;;;;;;5015168;28;20029;-51
2023/01/22 04:51:43;;;;;;;33.80;17.07;;;0.10;99.90;;;;;;4999079;28;20032;-53
2023/01/22 04:54:08;;;;;;;33.20;17.60;;;0.10;99.90;;;;;;5015046;28;20123;-51
2023/01/22 04:56:34;;;;;;;31.00;16.50;;;0.00;99.90;;;;;;5032799;28;20029;-53
2023/01/22 04:59:00;;;;;;;34.40;17.37;;;0.00;99.90;;;;;;5015090;28;20022;-51
2023/01/22 05:01:25;;;;;;;33.03;16.67;;;0.00;99.90;;;;;;5015128;28;20034;-53
2023/01/22 05:03:51;;;;;;;35.03;17.40;;;0.00;99.90;;;;;;5014845;28;20112;-51
2023/01/22 05:06:17;;;;;;;33.60;17.23;;;-0.10;99.90;;;;;;5014881;28;20047;-50
2023/01/22 05:08:42;;;;;;;29.47;15.93;;;0.00;99.90;;;;;;5014692;28;20160;-53
2023/01/22 05:11:09;;;;;;;31.23;16.27;;;0.00;99.90;;;;;;5032717;28;20029;-52
2023/01/22 05:13:45;;;;;;;31.07;16.47;;;-0.10;99.90;;;;;;5014741;28;20036;-53
2023/01/22 05:16:11;;;;;;;33.53;16.87;;;-0.10;99.90;;;;;;5014801;28;20049;-52
2023/01/22 05:18:37;;;;;;;35.23;16.23;;;-0.10;99.90;;;;;;5014476;28;20021;-50
2023/01/22 05:21:03;;;;;;;34.73;16.77;;;-0.10;99.90;;;;;;5014672;28;20068;-51
2023/01/22 05:23:30;;;;;;;31.53;15.70;;;0.00;99.90;;;;;;5014586;28;20033;-52
2023/01/22 05:25:56;;;;;;;31.17;16.27;;;-0.10;99.90;;;;;;5014767;28;20041;-50
2023/01/22 05:28:37;;;;;;;30.17;15.30;;;-0.10;99.90;;;;;;5014300;28;20033;-51
2023/01/22 05:31:17;;;;;;;;;;;-0.10;99.90;;;;;;5015114;28;20057;-51
2023/01/22 05:33:59;;;;;;;29.87;15.57;;;0.00;99.90;;;;;;5014361;28;20293;-51
2023/01/22 05:36:26;;;;;;;30.43;15.47;;;0.00;99.90;;;;;;5014364;28;20399;-52
2023/01/22 05:38:55;;;;;;;36.47;17.00;;;0.00;99.90;;;;;;5014327;28;20419;-53
2023/01/22 05:41:21;;;;;;;30.33;15.77;;;0.00;99.90;;;;;;5014563;28;20064;-54
2023/01/22 05:43:50;;;;;;;;;;;0.00;99.90;;;;;;5014719;28;20033;-50
2023/01/22 05:46:21;;;;;;;29.23;15.13;;;0.10;99.90;;;;;;5014160;28;19932;-52
2023/01/22 05:49:09;;;;;;;31.03;14.83;;;0.00;99.90;;;;;;5031892;28;20063;-53
2023/01/22 05:51:35;;;;;;;31.97;15.33;;;0.00;99.90;;;;;;5032254;28;20033;-50
2023/01/22 05:54:01;;;;;;;28.30;15.17;;;0.00;99.90;;;;;;5031713;28;20033;-53
2023/01/22 05:56:30;;;;;;;28.50;14.25;;;0.10;99.90;;;;;;5013917;28;20124;-54
2023/01/22 05:58:57;;;;;;;28.00;14.73;;;0.00;99.90;;;;;;5013964;28;20520;-54
2023/01/22 06:01:23;;;;;;;29.83;14.40;;;0.00;99.90;;;;;;5031742;28;20041;-51
2023/01/22 06:03:51;;;;;;;31.57;15.67;;;0.00;99.90;;;;;;5013881;28;20029;-53
2023/01/22 06:06:20;;;;;;;26.02;14.07;;;0.10;99.90;;;;;;5014038;28;20220;-50
2023/01/22 06:08:50;;;;;;;25.73;14.27;;;0.10;99.90;;;;;;5031508;28;20132;-49
2023/01/22 06:11:16;;;;;;;24.73;14.60;;;0.10;99.90;;;;;;5013940;28;20053;-51
2023/01/22 06:13:46;;;;;;;28.60;14.32;;;0.10;99.90;;;;;;5031537;28;20037;-52
2023/01/22 06:16:16;;;;;;;27.70;13.60;;;0.10;99.90;;;;;;5013637;28;20305;-51
2023/01/22 06:19:01;;;;;;;25.03;13.33;;;0.10;99.90;;;;;;5013876;28;20044;-49
2023/01/22 06:21:33;;;;;;;25.37;13.40;;;0.20;99.90;;;;;;5013731;28;20049;-54
2023/01/22 06:23:59;;;;;;;26.57;14.03;;;0.10;99.90;;;;;;5013510;28;20028;-53
2023/01/22 06:26:25;;;;;;;26.77;13.90;;;0.10;99.90;;;;;;5013617;28;20394;-54
2023/01/22 06:28:51;;;;;;;24.80;13.87;;;0.10;99.90;;;;;;5013443;28;20123;-51
2023/01/22 06:31:17;;;;;;;25.30;13.40;;;0.10;99.90;;;;;;5031200;28;20029;-51
2023/01/22 06:33:43;;;;;;;25.93;13.87;;;0.10;99.90;;;;;;5013178;28;20397;-53
2023/01/22 06:36:09;;;;;;;23.90;13.87;;;0.20;99.90;;;;;;5013500;28;20034;-53
2023/01/22 06:38:35;;;;;;;25.10;13.30;;;0.20;99.90;;;;;;5013114;28;20493;-53
2023/01/22 06:41:04;;;;;;;26.73;13.70;;;0.20;99.90;;;;;;5013397;28;20103;-54
2023/01/22 06:43:31;;;;;;;25.77;13.03;;;0.20;99.90;;;;;;5013108;28;20029;-53
2023/01/22 06:45:57;;;;;;;23.83;13.17;;;0.20;99.90;;;;;;5013366;28;20045;-52
2023/01/22 06:48:42;;;;;;;24.73;13.53;;;0.20;99.90;;;;;;5013043;28;20033;-52
2023/01/22 06:51:09;;;;;;;24.77;13.03;;;0.20;99.90;;;;;;5013170;28;20030;-53
2023/01/22 06:53:35;;;;;;;23.77;12.80;;;0.20;99.90;;;;;;5012950;28;20060;-52
2023/01/22 06:56:01;;;;;;;24.90;12.40;;;0.20;99.90;;;;;;5013047;28;20030;-51
2023/01/22 06:58:29;;;;;;;21.03;12.40;;;0.20;99.90;;;;;;5012895;28;20025;-52
2023/01/22 07:01:02;;;;;;;24.50;13.43;;;0.10;99.90;;;;;;5030672;28;20021;-50
2023/01/22 07:03:28;;;;;;;26.03;14.00;;;0.10;99.90;;;;;;5030245;28;20034;-50
2023/01/22 07:05:59;;;;;;;24.83;13.63;;;0.10;99.90;;;;;;5030640;28;20029;-50
2023/01/22 07:08:26;;;;;;;27.17;13.67;;;0.10;99.90;;;;;;5030530;28;20040;-51
2023/01/22 07:10:52;;;;;;;24.63;13.17;;;0.10;99.90;;;;;;5030593;28;20029;-50
2023/01/22 07:13:18;;;;;;;23.87;12.57;;;0.10;99.90;;;;;;5030474;28;20490;-51
2023/01/22 07:15:44;;;;;;;29.53;13.93;;;0.10;99.90;;;;;;5030453;28;20151;-51
2023/01/22 07:18:13;;;;;;;24.77;13.40;;;0.10;99.90;;;;;;5030402;28;20492;-52
2023/01/22 07:20:40;;;;;;;23.77;12.25;;;0.00;99.90;;;;;;5030724;28;20172;-51
2023/01/22 07:23:07;;;;;;;25.67;13.47;;;0.10;99.90;;;;;;5030470;28;20026;-49
2023/01/22 07:25:32;;;;;;;24.60;12.70;;;0.10;99.90;;;;;;5030297;28;20036;-51
2023/01/22 07:28:02;;;;;;;24.43;12.93;;;0.20;99.90;;;;;;5030189;28;20029;-50
2023/01/22 07:30:29;;;;;;;24.30;12.37;;;0.20;99.90;;;;;;5030324;28;20037;-50
2023/01/22 07:32:59;;;;;;;23.43;12.70;;;0.20;99.90;;;;;;5030397;28;20470;-53
2023/01/22 07:35:25;;;;;;;23.80;12.50;;;0.20;99.90;;;;;;5030286;28;20088;-53
2023/01/22 07:37:52;;;;;;;24.97;12.87;;;0.10;99.90;;;;;;5030172;28;20034;-52
2023/01/22 07:40:18;;;;;;;24.33;12.83;;;0.20;99.90;;;;;;5030308;28;20056;-52
2023/01/22 07:42:44;;;;;;;24.20;12.10;;;0.10;99.90;;;;;;5030789;28;20419;-56
2023/01/22 07:45:09;;;;;;;25.60;13.17;;;0.10;99.90;;;;;;5029610;28;20022;-54
2023/01/22 07:47:35;;;;;;;26.43;13.57;;;0.10;99.90;;;;;;5030264;28;20075;-57
2023/01/22 07:50:01;;;;;;;27.07;13.90;;;0.10;99.90;;;;;;5030255;28;20505;-53
2023/01/22 07:52:27;;;;;;;26.40;13.63;;;0.10;99.90;;;;;;5030497;28;20033;-53
2023/01/22 07:54:53;;;;;;;25.07;13.23;;;0.10;99.90;;;;;;5030003;28;20039;-53
2023/01/22 07:57:18;;;;;;;23.40;12.80;;;0.00;99.90;;;;;;5030362;28;20044;-50
2023/01/22 07:59:44;;;;;;;23.77;12.83;;;0.00;99.90;;;;;;5030363;28;20029;-53
2023/01/22 08:02:12;;;;;;;27.03;13.07;;;0.10;99.90;;;;;;5030826;28;20025;-51
2023/01/22 08:04:39;;;;;;;25.83;13.30;;;0.10;99.90;;;;;;5030466;28;20045;-52
2023/01/22 08:07:05;;;;;;;23.73;12.90;;;0.20;99.90;;;;;;5030395;28;20029;-51
2023/01/22 08:09:31;;;;;;;24.63;13.40;;;0.20;99.90;;;;;;5030252;28;20029;-50
2023/01/22 08:11:57;;;;;;;23.50;12.80;;;0.20;99.90;;;;;;5030410;28;20041;-51
2023/01/22 08:14:22;;;;;;;26.37;13.07;;;0.20;99.90;;;;;;5030210;28;20501;-53
2023/01/22 08:16:48;;;;;;;23.90;12.93;;;0.20;99.90;;;;;;5031914;28;20030;-52
2023/01/22 08:19:14;;;;;;;25.00;13.90;;;0.20;99.90;;;;;;5033940;28;20105;-53
2023/01/22 08:21:40;;;;;;;23.33;12.37;;;0.20;99.90;;;;;;5034041;28;20026;-50
2023/01/22 08:24:07;;;;;;;24.07;11.87;;;0.30;99.90;;;;;;5033591;28;20025;-52
2023/01/22 08:26:32;;;;;;;22.80;12.60;;;0.30;99.90;;;;;;5033794;28;20033;-54
2023/01/22 08:28:58;;;;;;;27.60;12.87;;;0.30;99.90;;;;;;5033534;28;20504;-49
2023/01/22 08:31:24;;;;;;;26.70;13.50;;;0.30;99.90;;;;;;5034127;28;20035;-50
2023/01/22 08:33:49;;;;;;;23.47;12.37;;;0.30;99.90;;;;;;5033512;28;20375;-53
2023/01/22 08:36:15;;;;;;;25.13;12.87;;;0.30;99.90;;;;;;5033497;28;20026;-54
2023/01/22 08:38:41;;;;;;;26.87;14.10;;;0.20;99.90;;;;;;5033233;28;20433;-53
2023/01/22 08:41:06;;;;;;;25.90;13.30;;;0.20;99.90;;;;;;5033558;28;20406;-54
2023/01/22 08:43:32;;;;;;;26.80;13.50;;;0.20;99.90;;;;;;5033367;28;20100;-53
2023/01/22 08:45:58;;;;;;;24.77;12.40;;;0.20;99.90;;;;;;5033417;28;20382;-50
2023/01/22 08:48:23;;;;;;;22.83;12.20;;;0.30;99.90;;;;;;5033128;28;20196;-53
2023/01/22 08:50:49;;;;;;;24.57;12.23;;;0.30;99.90;;;;;;5033452;28;20241;-52
2023/01/22 08:53:15;;;;;;;25.47;12.97;;;0.30;99.90;;;;;;5033177;28;20037;-54
2023/01/22 08:55:40;;;;;;;36.73;13.83;;;0.30;99.90;;;;;;5015133;28;20041;-55
2023/01/22 08:58:06;;;;;;;25.83;12.47;;;0.30;99.90;;;;;;5032992;28;20056;-53
2023/01/22 09:00:32;;;;;;;21.00;12.27;;;0.30;99.90;;;;;;5033117;28;20394;-52
2023/01/22 09:02:59;;;;;;;25.80;12.83;;;0.30;99.90;;;;;;5033070;28;20025;-51
2023/01/22 09:05:26;;;;;;;22.03;12.57;;;0.30;99.90;;;;;;5033296;28;20104;-52
2023/01/22 09:07:51;;;;;;;21.10;11.63;;;0.40;99.90;;;;;;5032669;28;20040;-52
2023/01/22 09:10:17;;;;;;;26.60;11.87;;;0.40;99.90;;;;;;5032733;28;20026;-53
2023/01/22 09:12:43;;;;;;;22.47;12.30;;;0.50;99.90;;;;;;5032757;28;20029;-53
2023/01/22 09:15:09;;;;;;;22.43;12.23;;;0.40;99.90;;;;;;5032558;28;20079;-54
2023/01/22 09:17:35;;;;;;;20.53;11.30;;;0.40;99.90;;;;;;5032537;28;20152;-53
2023/01/22 09:20:00;;;;;;;23.83;12.57;;;0.50;99.90;;;;;;5032703;28;20034;-51
2023/01/22 09:22:26;;;;;;;20.80;11.30;;;0.50;99.90;;;;;;5032649;28;20053;-53
2023/01/22 09:24:53;;;;;;;21.17;11.47;;;0.50;99.90;;;;;;5032338;28;20060;-54
2023/01/22 09:27:19;;;;;;;23.67;12.30;;;0.50;99.90;;;;;;5031880;28;20032;-54
2023/01/22 09:29:45;;;;;;;20.93;12.27;;;0.40;99.90;;;;;;5032291;28;20025;-53
2023/01/22 09:32:10;;;;;;;23.50;12.50;;;0.40;99.90;;;;;;5032621;28;20032;-52
2023/01/22 09:34:36;;;;;;;23.17;12.80;;;0.50;99.90;;;;;;5032287;28;20433;-54
2023/01/22 09:37:06;;;;;;;23.97;12.90;;;0.40;99.90;;;;;;5031963;28;20531;-54
2023/01/22 09:39:32;;;;;;;21.47;12.30;;;0.40;99.90;;;;;;5032555;28;20026;-54
2023/01/22 09:42:00;;;;;;;23.00;13.13;;;0.40;99.90;;;;;;5032413;28;20022;-50
2023/01/22 09:44:40;;;;;;;26.50;13.17;;;0.50;99.90;;;;;;5032458;28;20025;-53
2023/01/22 09:47:15;;;;;;;25.90;13.00;;;0.50;99.90;;;;;;5032141;28;20068;-54
2023/01/22 09:49:52;;;;;;;23.30;13.20;;;0.50;99.90;;;;;;5032308;28;20381;-54
2023/01/22 09:52:19;;;;;;;23.20;12.77;;;0.50;99.90;;;;;;5032294;28;20053;-53
2023/01/22 09:54:45;;;;;;;22.37;12.10;;;0.50;99.90;;;;;;5014196;28;20080;-52
2023/01/22 09:57:12;;;;;;;26.40;13.10;;;0.50;99.90;;;;;;5031776;28;20394;-53
2023/01/22 09:59:50;;;;;;;24.20;12.87;;;0.50;99.90;;;;;;5031787;28;20470;-52
2023/01/22 10:02:33;;;;;;;24.37;12.67;;;0.60;99.90;;;;;;5032152;28;20072;-53
2023/01/22 10:05:17;;;;;;;25.50;13.00;;;0.60;99.90;;;;;;5031797;28;20436;-53
2023/01/22 10:07:49;;;;;;;29.30;14.00;;;0.60;99.90;;;;;;5031613;28;20028;-53
2023/01/22 10:10:24;;;;;;;24.27;12.57;;;0.60;99.90;;;;;;5031556;28;20030;-54
2023/01/22 10:12:59;;;;;;;23.00;13.07;;;0.70;99.90;;;;;;5031757;28;20022;-55
2023/01/22 10:15:25;;;;;;;22.60;12.87;;;0.60;99.90;;;;;;5031332;28;20033;-50
2023/01/22 10:17:54;;;;;;;25.60;13.23;;;0.60;99.90;;;;;;5031461;28;20044;-53
2023/01/22 10:20:20;;;;;;;27.07;13.87;;;0.60;99.90;;;;;;5031500;28;20115;-52
2023/01/22 10:22:47;;;;;;;22.17;12.90;;;0.60;99.90;;;;;;5031384;28;20439;-54
2023/01/22 10:25:15;;;;;;;23.30;13.60;;;0.60;99.90;;;;;;5031161;28;20087;-54
2023/01/22 10:27:43;;;;;;;28.23;13.93;;;0.50;99.90;;;;;;5031180;28;20518;-53
2023/01/22 10:30:22;;;;;;;28.30;13.83;;;0.60;99.90;;;;;;5031082;28;20037;-52
2023/01/22 10:32:59;;;;;;;26.70;13.88;;;0.70;99.90;;;;;;5031440;28;20120;-54
2023/01/22 10:35:25;;;;;;;25.50;14.40;;;0.70;99.90;;;;;;5030908;28;20040;-54
2023/01/22 10:37:55;;;;;;;26.53;14.37;;;0.60;99.90;;;;;;5030870;28;20151;-53
2023/01/22 10:40:26;;;;;;;30.33;14.67;;;0.60;99.90;;;;;;5030222;28;20033;-52
2023/01/22 10:43:14;;;;;;;26.37;13.63;;;0.60;99.90;;;;;;5031149;28;20108;-51
2023/01/22 10:45:51;;;;;;;25.20;14.33;;;0.70;99.90;;;;;;5030722;28;20025;-49
2023/01/22 10:48:18;;;;;;;25.60;13.90;;;0.70;99.90;;;;;;5030733;28;20033;-54
2023/01/22 10:50:45;;;;;;;27.63;14.53;;;0.70;99.90;;;;;;5030943;28;20075;-54
2023/01/22 10:53:24;;;;;;;24.60;13.30;;;0.70;99.90;;;;;;5030973;28;20044;-51
2023/01/22 10:55:53;;;;;;;23.70;13.38;;;0.70;99.90;;;;;;5030872;28;20037;-51
2023/01/22 10:58:22;;;;;;;25.63;13.90;;;0.70;99.90;;;;;;5030480;28;20071;-54
2023/01/22 11:01:20;;;;;;;24.08;14.00;;;0.80;99.90;;;;;;5031329;28;20538;-57
2023/01/22 11:03:46;;;;;;;24.10;13.60;;;0.90;99.90;;;;;;5030910;28;20559;-52
2023/01/22 11:06:27;;;;;;;26.93;14.17;;;0.90;99.90;;;;;;5030595;28;20037;-53
2023/01/22 11:09:04;;;;;;;24.07;13.43;;;1.00;99.90;;;;;;5030522;28;20104;-50
2023/01/22 11:11:36;;;;;;;24.67;13.17;;;1.10;99.90;;;;;;5030653;28;20227;-52
2023/01/22 11:14:24;;;;;;;22.43;13.03;;;1.10;99.90;;;;;;5030625;28;20079;-54
2023/01/22 11:16:52;;;;;;;25.97;13.73;;;1.10;99.90;;;;;;5029662;28;20124;-54
2023/01/22 11:19:22;;;;;;;21.83;12.57;;;1.20;99.90;;;;;;5030374;28;20116;-51
2023/01/22 11:21:50;;;;;;;24.50;13.25;;;1.20;99.90;;;;;;5030533;28;20044;-54
2023/01/22 11:24:39;;;;;;;24.27;13.70;;;1.20;99.90;;;;;;5030179;28;20075;-54
2023/01/22 11:27:24;;;;;;;22.57;12.97;;;1.10;99.90;;;;;;5030392;28;20186;-54
2023/01/22 11:30:23;;;;;;;24.60;13.47;;;1.20;99.90;;;;;;5030393;28;20411;-54
2023/01/22 11:32:59;;;;;;;19.55;11.07;;;1.20;99.90;;;;;;5030536;28;20079;-54
2023/01/22 11:35:50;;;;;;;25.63;13.40;;;1.20;99.90;;;;;;5030135;28;20065;-50
2023/01/22 11:38:23;;;;;;;25.57;14.03;;;1.20;99.90;;;;;;5029969;28;20111;-50
2023/01/22 11:41:12;;;;;;;25.53;14.10;;;1.10;99.90;;;;;;5030321;28;20112;-52
2023/01/22 11:44:07;;;;;;;24.47;13.53;;;1.10;99.90;;;;;;5030177;28;20791;-52
2023/01/22 11:47:10;;;;;;;24.40;13.87;;;1.10;99.90;;;;;;5030213;28;20442;-51
2023/01/22 11:49:59;;;;;;;25.23;13.80;;;1.20;99.90;;;;;;5030076;28;20075;-53
2023/01/22 11:52:49;;;;;;;26.55;15.10;;;1.20;99.90;;;;;;5020735;28;20046;-52
2023/01/22 11:55:38;;;;;;;27.33;14.70;;;1.20;99.90;;;;;;5033881;28;20049;-52
2023/01/22 11:58:36;;;;;;;28.77;15.32;;;1.30;99.90;;;;;;5034034;28;20034;-53
2023/01/22 12:01:30;;;;;;;28.73;15.27;;;1.30;99.90;;;;;;5025427;28;20445;-54
2023/01/22 12:04:30;;;;;;;29.37;15.83;;;1.40;99.90;;;;;;5033891;28;20486;-52
2023/01/22 12:07:26;;;;;;;29.83;16.33;;;1.30;99.90;;;;;;5033812;28;20398;-50
2023/01/22 12:10:24;;;;;;;32.67;15.43;;;1.30;99.90;;;;;;5033691;28;20139;-53
2023/01/22 12:13:18;;;;;;;27.63;15.47;;;1.30;99.90;;;;;;5029125;28;20073;-53
2023/01/22 12:15:57;;;;;;;30.77;16.93;;;1.40;99.90;;;;;;5033653;28;20079;-52
2023/01/22 12:18:26;;;;;;;26.20;15.68;;;1.40;99.90;;;;;;5033768;28;20034;-53
2023/01/22 12:21:12;;;;;;;26.45;15.02;;;1.30;99.90;;;;;;5033538;28;20092;-52
2023/01/22 12:23:45;;;;;;;27.23;15.20;;;1.40;99.90;;;;;;5033412;28;20548;-50
2023/01/22 12:26:16;;;;;;;28.97;16.03;;;1.40;99.90;;;;;;5033616;28;20057;-52
2023/01/22 12:29:00;;;;;;;29.53;15.70;;;1.30;99.90;;;;;;5015654;28;20032;-52
2023/01/22 12:31:41;;;;;;;27.47;15.47;;;1.40;99.90;;;;;;5033329;28;20037;-53
2023/01/22 12:34:24;;;;;;;28.90;15.57;;;1.40;99.90;;;;;;5033213;28;20394;-53
2023/01/22 12:36:52;;;;;;;29.97;16.50;;;1.40;99.90;;;;;;5033402;28;20155;-51
2023/01/22 12:39:28;;;;;;;28.50;16.17;;;1.40;99.90;;;;;;5033330;28;20029;-50
2023/01/22 12:42:08;;;;;;;29.10;16.10;;;1.40;99.90;;;;;;5033378;28;20529;-52
2023/01/22 12:44:52;;;;;;;28.13;16.27;;;1.40;99.90;;;;;;5033094;28;20228;-51
2023/01/22 12:47:33;;;;;;;29.07;16.43;;;1.40;99.90;;;;;;5033201;28;20441;-53
2023/01/22 12:49:59;;;;;;;27.33;15.03;;;1.40;99.90;;;;;;5033178;28;20106;-49
2023/01/22 12:52:32;;;;;;;30.10;16.30;;;1.40;99.90;;;;;;5015379;28;20499;-53
2023/01/22 12:54:58;;;;;;;29.23;16.17;;;1.40;99.90;;;;;;5014861;28;20048;-53
2023/01/22 12:57:40;;;;;;;32.17;16.73;;;1.40;99.90;;;;;;5033133;28;20030;-53
2023/01/22 13:00:11;;;;;;;29.47;15.47;;;1.40;99.90;;;;;;5033134;28;20044;-51
2023/01/22 13:02:38;;;;;;;30.70;16.63;;;1.40;99.90;;;;;;5032177;28;20421;-54
2023/01/22 13:05:20;;;;;;;29.57;16.90;;;1.50;99.90;;;;;;5032654;28;20037;-50